sensor_id;sensor_type;location;lat;lon;timestamp;P1;durP1;ratioP1;P2;durP2;ratioP2
44197;SDS011;30157;55.512;37.764;2023-09-30T00:01:39;18.50;;;12.15;;
44197;SDS011;30157;55.512;37.764;2023-09-30T00:04:04;19.17;;;12.82;;
44197;SDS011;30157;55.512;37.764;2023-09-30T00:06:32;19.20;;;12.23;;
44197;SDS011;30157;55.512;37.764;2023-09-30T00:08:58;18.88;;;12.75;;
44197;SDS011;30157;55.512;37.764;2023-09-30T00:11:24;19.40;;;12.98;;
44197;SDS011;30157;55.512;37.764;2023-09-30T00:13:50;18.38;;;12.30;;
44197;SDS011;30157;55.512;37.764;2023-09-30T00:16:17;19.15;;;12.38;;
44197;SDS011;30157;55.512;37.764;2023-09-30T00:18:44;20.17;;;12.82;;
44197;SDS011;30157;55.512;37.764;2023-09-30T00:21:10;18.77;;;12.45;;
44197;SDS011;30157;55.512;37.764;2023-09-30T00:23:36;18.10;;;12.80;;
44197;SDS011;30157;55.512;37.764;2023-09-30T00:26:02;20.90;;;12.77;;
44197;SDS011;30157;55.512;37.764;2023-09-30T00:28:28;20.67;;;12.95;;
44197;SDS011;30157;55.512;37.764;2023-09-30T00:30:55;19.50;;;12.18;;
44197;SDS011;30157;55.512;37.764;2023-09-30T00:33:21;19.13;;;12.38;;
44197;SDS011;30157;55.512;37.764;2023-09-30T00:35:47;18.55;;;12.90;;
44197;SDS011;30157;55.512;37.764;2023-09-30T00:38:13;18.90;;;12.48;;
44197;SDS011;30157;55.512;37.764;2023-09-30T00:40:46;19.80;;;12.68;;
44197;SDS011;30157;55.512;37.764;2023-09-30T00:43:20;19.45;;;13.07;;
44197;SDS011;30157;55.512;37.764;2023-09-30T00:45:49;19.20;;;12.77;;
44197;SDS011;30157;55.512;37.764;2023-09-30T00:48:46;18.30;;;11.93;;
44197;SDS011;30157;55.512;37.764;2023-09-30T00:51:13;16.90;;;12.00;;
44197;SDS011;30157;55.512;37.764;2023-09-30T00:53:39;19.08;;;12.00;;
44197;SDS011;30157;55.512;37.764;2023-09-30T00:56:06;17.08;;;11.73;;
44197;SDS011;30157;55.512;37.764;2023-09-30T00:58:32;19.58;;;12.55;;
44197;SDS011;30157;55.512;37.764;2023-09-30T01:00:59;20.05;;;12.98;;
44197;SDS011;30157;55.512;37.764;2023-09-30T01:03:25;17.67;;;11.50;;
44197;SDS011;30157;55.512;37.764;2023-09-30T01:05:51;16.50;;;11.50;;
44197;SDS011;30157;55.512;37.764;2023-09-30T01:08:19;15.82;;;11.48;;
44197;SDS011;30157;55.512;37.764;2023-09-30T01:10:45;18.33;;;11.85;;
44197;SDS011;30157;55.512;37.764;2023-09-30T01:13:14;17.88;;;11.65;;
44197;SDS011;30157;55.512;37.764;2023-09-30T01:15:40;17.90;;;11.75;;
44197;SDS011;30157;55.512;37.764;2023-09-30T01:18:05;18.88;;;12.25;;
44197;SDS011;30157;55.512;37.764;2023-09-30T01:20:31;21.55;;;12.93;;
44197;SDS011;30157;55.512;37.764;2023-09-30T01:22:58;22.75;;;13.10;;
44197;SDS011;30157;55.512;37.764;2023-09-30T01:25:26;25.67;;;14.07;;
44197;SDS011;30157;55.512;37.764;2023-09-30T01:27:53;19.58;;;12.95;;
44197;SDS011;30157;55.512;37.764;2023-09-30T01:30:19;18.70;;;12.13;;
44197;SDS011;30157;55.512;37.764;2023-09-30T01:32:48;16.58;;;11.65;;
44197;SDS011;30157;55.512;37.764;2023-09-30T01:35:15;20.52;;;12.52;;
44197;SDS011;30157;55.512;37.764;2023-09-30T01:37:41;20.50;;;13.10;;
44197;SDS011;30157;55.512;37.764;2023-09-30T01:40:09;18.52;;;12.80;;
44197;SDS011;30157;55.512;37.764;2023-09-30T01:42:38;21.67;;;12.73;;
44197;SDS011;30157;55.512;37.764;2023-09-30T01:45:04;18.77;;;12.73;;
44197;SDS011;30157;55.512;37.764;2023-09-30T01:47:31;21.40;;;13.02;;
44197;SDS011;30157;55.512;37.764;2023-09-30T01:49:58;20.38;;;13.63;;
44197;SDS011;30157;55.512;37.764;2023-09-30T01:52:24;22.17;;;13.35;;
44197;SDS011;30157;55.512;37.764;2023-09-30T01:54:52;20.70;;;12.23;;
44197;SDS011;30157;55.512;37.764;2023-09-30T01:57:20;17.33;;;12.35;;
44197;SDS011;30157;55.512;37.764;2023-09-30T01:59:45;18.33;;;12.43;;
44197;SDS011;30157;55.512;37.764;2023-09-30T02:02:11;22.85;;;13.10;;
44197;SDS011;30157;55.512;37.764;2023-09-30T02:04:38;18.40;;;12.82;;
44197;SDS011;30157;55.512;37.764;2023-09-30T02:07:04;18.10;;;11.95;;
44197;SDS011;30157;55.512;37.764;2023-09-30T02:09:30;21.33;;;12.40;;
44197;SDS011;30157;55.512;37.764;2023-09-30T02:11:55;18.27;;;12.13;;
44197;SDS011;30157;55.512;37.764;2023-09-30T02:14:24;16.77;;;12.18;;
44197;SDS011;30157;55.512;37.764;2023-09-30T02:16:50;18.15;;;11.68;;
44197;SDS011;30157;55.512;37.764;2023-09-30T02:19:16;17.35;;;11.40;;
44197;SDS011;30157;55.512;37.764;2023-09-30T02:21:42;17.27;;;12.52;;
44197;SDS011;30157;55.512;37.764;2023-09-30T02:24:09;17.25;;;11.85;;
44197;SDS011;30157;55.512;37.764;2023-09-30T02:26:35;17.33;;;12.13;;
44197;SDS011;30157;55.512;37.764;2023-09-30T02:29:03;17.65;;;11.30;;
44197;SDS011;30157;55.512;37.764;2023-09-30T02:31:33;18.75;;;12.63;;
44197;SDS011;30157;55.512;37.764;2023-09-30T02:34:00;19.17;;;12.02;;
44197;SDS011;30157;55.512;37.764;2023-09-30T02:36:29;16.73;;;11.30;;
44197;SDS011;30157;55.512;37.764;2023-09-30T02:38:54;17.63;;;11.50;;
44197;SDS011;30157;55.512;37.764;2023-09-30T02:41:20;14.95;;;11.10;;
44197;SDS011;30157;55.512;37.764;2023-09-30T02:43:47;16.83;;;11.93;;
44197;SDS011;30157;55.512;37.764;2023-09-30T02:46:14;17.98;;;12.35;;
44197;SDS011;30157;55.512;37.764;2023-09-30T02:48:39;17.90;;;11.60;;
44197;SDS011;30157;55.512;37.764;2023-09-30T02:51:09;17.30;;;11.95;;
44197;SDS011;30157;55.512;37.764;2023-09-30T02:53:35;16.13;;;11.70;;
44197;SDS011;30157;55.512;37.764;2023-09-30T02:56:02;14.82;;;11.45;;
44197;SDS011;30157;55.512;37.764;2023-09-30T02:58:30;16.40;;;11.85;;
44197;SDS011;30157;55.512;37.764;2023-09-30T03:00:56;19.80;;;12.85;;
44197;SDS011;30157;55.512;37.764;2023-09-30T03:03:22;18.63;;;11.93;;
44197;SDS011;30157;55.512;37.764;2023-09-30T03:05:51;21.48;;;13.13;;
44197;SDS011;30157;55.512;37.764;2023-09-30T03:08:17;19.63;;;12.30;;
44197;SDS011;30157;55.512;37.764;2023-09-30T03:10:43;19.67;;;12.38;;
44197;SDS011;30157;55.512;37.764;2023-09-30T03:13:09;20.25;;;13.45;;
44197;SDS011;30157;55.512;37.764;2023-09-30T03:15:35;19.83;;;12.40;;
44197;SDS011;30157;55.512;37.764;2023-09-30T03:18:02;18.45;;;11.95;;
44197;SDS011;30157;55.512;37.764;2023-09-30T03:20:29;20.17;;;12.68;;
44197;SDS011;30157;55.512;37.764;2023-09-30T03:22:56;20.13;;;12.95;;
44197;SDS011;30157;55.512;37.764;2023-09-30T03:25:23;18.70;;;12.40;;
44197;SDS011;30157;55.512;37.764;2023-09-30T03:27:49;16.88;;;11.50;;
44197;SDS011;30157;55.512;37.764;2023-09-30T03:30:15;19.23;;;12.75;;
44197;SDS011;30157;55.512;37.764;2023-09-30T03:32:42;16.98;;;11.13;;
44197;SDS011;30157;55.512;37.764;2023-09-30T03:35:09;18.13;;;11.40;;
44197;SDS011;30157;55.512;37.764;2023-09-30T03:37:46;17.40;;;11.80;;
44197;SDS011;30157;55.512;37.764;2023-09-30T03:40:13;17.90;;;11.82;;
44197;SDS011;30157;55.512;37.764;2023-09-30T03:42:40;17.58;;;12.30;;
44197;SDS011;30157;55.512;37.764;2023-09-30T03:45:09;17.58;;;12.15;;
44197;SDS011;30157;55.512;37.764;2023-09-30T03:47:39;17.98;;;11.95;;
44197;SDS011;30157;55.512;37.764;2023-09-30T03:50:06;19.45;;;12.60;;
44197;SDS011;30157;55.512;37.764;2023-09-30T03:52:41;19.38;;;12.82;;
44197;SDS011;30157;55.512;37.764;2023-09-30T03:55:13;18.80;;;11.77;;
44197;SDS011;30157;55.512;37.764;2023-09-30T03:57:41;26.38;;;13.45;;
44197;SDS011;30157;55.512;37.764;2023-09-30T04:00:08;22.17;;;12.88;;
44197;SDS011;30157;55.512;37.764;2023-09-30T04:02:39;23.63;;;12.63;;
44197;SDS011;30157;55.512;37.764;2023-09-30T04:05:08;19.17;;;11.82;;
44197;SDS011;30157;55.512;37.764;2023-09-30T04:07:37;17.67;;;11.90;;
44197;SDS011;30157;55.512;37.764;2023-09-30T04:10:03;18.90;;;12.27;;
44197;SDS011;30157;55.512;37.764;2023-09-30T04:12:32;19.70;;;12.00;;
44197;SDS011;30157;55.512;37.764;2023-09-30T04:15:07;17.92;;;12.40;;
44197;SDS011;30157;55.512;37.764;2023-09-30T04:17:37;17.27;;;12.10;;
44197;SDS011;30157;55.512;37.764;2023-09-30T04:20:05;18.95;;;12.90;;
44197;SDS011;30157;55.512;37.764;2023-09-30T04:22:43;17.42;;;11.60;;
44197;SDS011;30157;55.512;37.764;2023-09-30T04:25:15;16.83;;;11.93;;
44197;SDS011;30157;55.512;37.764;2023-09-30T04:27:45;17.10;;;11.90;;
44197;SDS011;30157;55.512;37.764;2023-09-30T04:30:11;17.23;;;10.77;;
44197;SDS011;30157;55.512;37.764;2023-09-30T04:32:37;15.80;;;12.05;;
44197;SDS011;30157;55.512;37.764;2023-09-30T04:35:06;14.27;;;10.77;;
44197;SDS011;30157;55.512;37.764;2023-09-30T04:37:36;16.73;;;11.68;;
44197;SDS011;30157;55.512;37.764;2023-09-30T04:40:03;16.70;;;11.93;;
44197;SDS011;30157;55.512;37.764;2023-09-30T04:42:36;16.58;;;11.35;;
44197;SDS011;30157;55.512;37.764;2023-09-30T04:45:03;15.70;;;11.55;;
44197;SDS011;30157;55.512;37.764;2023-09-30T04:47:33;16.38;;;11.07;;
44197;SDS011;30157;55.512;37.764;2023-09-30T04:49:59;15.98;;;11.30;;
44197;SDS011;30157;55.512;37.764;2023-09-30T04:52:26;14.80;;;11.57;;
44197;SDS011;30157;55.512;37.764;2023-09-30T04:54:53;15.07;;;11.68;;
44197;SDS011;30157;55.512;37.764;2023-09-30T04:57:19;17.48;;;11.00;;
44197;SDS011;30157;55.512;37.764;2023-09-30T04:59:45;14.82;;;10.20;;
44197;SDS011;30157;55.512;37.764;2023-09-30T05:02:12;15.45;;;11.52;;
44197;SDS011;30157;55.512;37.764;2023-09-30T05:04:41;14.93;;;11.48;;
44197;SDS011;30157;55.512;37.764;2023-09-30T05:07:08;15.43;;;12.60;;
44197;SDS011;30157;55.512;37.764;2023-09-30T05:09:34;15.80;;;11.15;;
44197;SDS011;30157;55.512;37.764;2023-09-30T05:12:00;14.65;;;11.35;;
44197;SDS011;30157;55.512;37.764;2023-09-30T05:14:25;12.75;;;10.77;;
44197;SDS011;30157;55.512;37.764;2023-09-30T05:16:54;18.17;;;11.82;;
44197;SDS011;30157;55.512;37.764;2023-09-30T05:19:22;13.85;;;11.25;;
44197;SDS011;30157;55.512;37.764;2023-09-30T05:21:48;14.75;;;11.32;;
44197;SDS011;30157;55.512;37.764;2023-09-30T05:24:15;17.35;;;12.27;;
44197;SDS011;30157;55.512;37.764;2023-09-30T05:26:44;18.33;;;11.15;;
44197;SDS011;30157;55.512;37.764;2023-09-30T05:29:10;16.60;;;11.30;;
44197;SDS011;30157;55.512;37.764;2023-09-30T05:31:36;17.15;;;12.25;;
44197;SDS011;30157;55.512;37.764;2023-09-30T05:34:02;14.05;;;10.95;;
44197;SDS011;30157;55.512;37.764;2023-09-30T05:36:30;16.55;;;12.02;;
44197;SDS011;30157;55.512;37.764;2023-09-30T05:38:56;18.38;;;12.25;;
44197;SDS011;30157;55.512;37.764;2023-09-30T05:41:22;16.90;;;11.57;;
44197;SDS011;30157;55.512;37.764;2023-09-30T05:43:48;16.70;;;11.50;;
44197;SDS011;30157;55.512;37.764;2023-09-30T05:46:14;19.67;;;12.18;;
44197;SDS011;30157;55.512;37.764;2023-09-30T05:48:40;15.32;;;11.18;;
44197;SDS011;30157;55.512;37.764;2023-09-30T05:51:07;17.42;;;11.07;;
44197;SDS011;30157;55.512;37.764;2023-09-30T05:53:33;16.38;;;12.45;;
44197;SDS011;30157;55.512;37.764;2023-09-30T05:55:59;18.77;;;12.07;;
44197;SDS011;30157;55.512;37.764;2023-09-30T05:58:25;20.05;;;11.93;;
44197;SDS011;30157;55.512;37.764;2023-09-30T06:00:54;14.98;;;11.10;;
44197;SDS011;30157;55.512;37.764;2023-09-30T06:03:20;15.27;;;12.60;;
44197;SDS011;30157;55.512;37.764;2023-09-30T06:05:48;16.73;;;11.43;;
44197;SDS011;30157;55.512;37.764;2023-09-30T06:08:14;16.38;;;12.07;;
44197;SDS011;30157;55.512;37.764;2023-09-30T06:10:43;18.10;;;11.82;;
44197;SDS011;30157;55.512;37.764;2023-09-30T06:13:09;18.33;;;12.45;;
44197;SDS011;30157;55.512;37.764;2023-09-30T06:15:39;16.83;;;12.32;;
44197;SDS011;30157;55.512;37.764;2023-09-30T06:18:07;18.27;;;12.27;;
44197;SDS011;30157;55.512;37.764;2023-09-30T06:20:35;18.25;;;12.35;;
44197;SDS011;30157;55.512;37.764;2023-09-30T06:23:00;19.55;;;12.93;;
44197;SDS011;30157;55.512;37.764;2023-09-30T06:25:27;17.92;;;12.50;;
44197;SDS011;30157;55.512;37.764;2023-09-30T06:27:54;17.98;;;12.98;;
44197;SDS011;30157;55.512;37.764;2023-09-30T06:30:20;16.00;;;12.77;;
44197;SDS011;30157;55.512;37.764;2023-09-30T06:32:46;21.23;;;13.68;;
44197;SDS011;30157;55.512;37.764;2023-09-30T06:35:13;19.67;;;12.90;;
44197;SDS011;30157;55.512;37.764;2023-09-30T06:37:39;18.50;;;13.13;;
44197;SDS011;30157;55.512;37.764;2023-09-30T06:40:09;18.52;;;13.02;;
44197;SDS011;30157;55.512;37.764;2023-09-30T06:42:38;20.25;;;12.80;;
44197;SDS011;30157;55.512;37.764;2023-09-30T06:45:05;18.90;;;13.50;;
44197;SDS011;30157;55.512;37.764;2023-09-30T06:47:33;24.02;;;13.27;;
44197;SDS011;30157;55.512;37.764;2023-09-30T06:50:01;18.13;;;11.90;;
44197;SDS011;30157;55.512;37.764;2023-09-30T06:52:37;16.45;;;11.65;;
44197;SDS011;30157;55.512;37.764;2023-09-30T06:55:06;16.00;;;11.70;;
44197;SDS011;30157;55.512;37.764;2023-09-30T06:57:33;16.83;;;12.68;;
44197;SDS011;30157;55.512;37.764;2023-09-30T07:00:01;14.70;;;11.30;;
44197;SDS011;30157;55.512;37.764;2023-09-30T07:02:33;17.38;;;11.85;;
44197;SDS011;30157;55.512;37.764;2023-09-30T07:04:59;17.35;;;11.32;;
44197;SDS011;30157;55.512;37.764;2023-09-30T07:07:26;17.92;;;12.10;;
44197;SDS011;30157;55.512;37.764;2023-09-30T07:09:52;19.15;;;12.68;;
44197;SDS011;30157;55.512;37.764;2023-09-30T07:12:17;14.57;;;11.10;;
44197;SDS011;30157;55.512;37.764;2023-09-30T07:14:43;16.52;;;11.55;;
44197;SDS011;30157;55.512;37.764;2023-09-30T07:17:10;16.17;;;11.18;;
44197;SDS011;30157;55.512;37.764;2023-09-30T07:19:36;16.27;;;11.57;;
44197;SDS011;30157;55.512;37.764;2023-09-30T07:22:02;16.10;;;11.43;;
44197;SDS011;30157;55.512;37.764;2023-09-30T07:24:28;15.93;;;10.70;;
44197;SDS011;30157;55.512;37.764;2023-09-30T07:26:53;15.73;;;10.82;;
44197;SDS011;30157;55.512;37.764;2023-09-30T07:29:20;14.30;;;11.18;;
44197;SDS011;30157;55.512;37.764;2023-09-30T07:31:47;14.45;;;10.73;;
44197;SDS011;30157;55.512;37.764;2023-09-30T07:34:13;12.65;;;9.60;;
44197;SDS011;30157;55.512;37.764;2023-09-30T07:36:40;14.13;;;9.85;;
44197;SDS011;30157;55.512;37.764;2023-09-30T07:39:08;14.15;;;10.30;;
44197;SDS011;30157;55.512;37.764;2023-09-30T07:41:34;28.05;;;10.40;;
44197;SDS011;30157;55.512;37.764;2023-09-30T07:44:02;13.55;;;9.75;;
44197;SDS011;30157;55.512;37.764;2023-09-30T07:46:28;12.55;;;8.90;;
44197;SDS011;30157;55.512;37.764;2023-09-30T07:48:54;10.82;;;9.70;;
44197;SDS011;30157;55.512;37.764;2023-09-30T07:51:20;12.05;;;9.20;;
44197;SDS011;30157;55.512;37.764;2023-09-30T07:53:46;11.23;;;8.63;;
44197;SDS011;30157;55.512;37.764;2023-09-30T07:56:13;13.93;;;9.65;;
44197;SDS011;30157;55.512;37.764;2023-09-30T07:58:39;11.15;;;7.80;;
44197;SDS011;30157;55.512;37.764;2023-09-30T08:01:07;13.57;;;8.60;;
44197;SDS011;30157;55.512;37.764;2023-09-30T08:03:33;11.43;;;8.15;;
44197;SDS011;30157;55.512;37.764;2023-09-30T08:06:02;14.13;;;8.93;;
44197;SDS011;30157;55.512;37.764;2023-09-30T08:08:28;13.38;;;8.45;;
44197;SDS011;30157;55.512;37.764;2023-09-30T08:10:55;9.95;;;7.90;;
44197;SDS011;30157;55.512;37.764;2023-09-30T08:13:22;10.35;;;7.85;;
44197;SDS011;30157;55.512;37.764;2023-09-30T08:15:51;10.93;;;7.80;;
44197;SDS011;30157;55.512;37.764;2023-09-30T08:18:20;12.00;;;7.57;;
44197;SDS011;30157;55.512;37.764;2023-09-30T08:20:47;12.02;;;7.75;;
44197;SDS011;30157;55.512;37.764;2023-09-30T08:23:14;13.07;;;7.55;;
44197;SDS011;30157;55.512;37.764;2023-09-30T08:25:41;10.43;;;7.18;;
44197;SDS011;30157;55.512;37.764;2023-09-30T08:28:07;8.48;;;6.82;;
44197;SDS011;30157;55.512;37.764;2023-09-30T08:30:35;10.82;;;7.18;;
44197;SDS011;30157;55.512;37.764;2023-09-30T08:33:01;9.27;;;6.50;;
44197;SDS011;30157;55.512;37.764;2023-09-30T08:35:29;11.45;;;6.55;;
44197;SDS011;30157;55.512;37.764;2023-09-30T08:37:57;10.10;;;6.68;;
44197;SDS011;30157;55.512;37.764;2023-09-30T08:40:23;10.68;;;6.40;;
44197;SDS011;30157;55.512;37.764;2023-09-30T08:42:51;6.88;;;6.05;;
44197;SDS011;30157;55.512;37.764;2023-09-30T08:45:18;8.65;;;6.32;;
44197;SDS011;30157;55.512;37.764;2023-09-30T08:47:44;10.32;;;7.07;;
44197;SDS011;30157;55.512;37.764;2023-09-30T08:50:11;9.80;;;6.63;;
44197;SDS011;30157;55.512;37.764;2023-09-30T08:52:41;9.20;;;6.35;;
44197;SDS011;30157;55.512;37.764;2023-09-30T08:55:09;9.93;;;6.60;;
44197;SDS011;30157;55.512;37.764;2023-09-30T08:57:36;11.25;;;6.32;;
44197;SDS011;30157;55.512;37.764;2023-09-30T09:00:10;10.73;;;6.00;;
44197;SDS011;30157;55.512;37.764;2023-09-30T09:02:46;9.13;;;6.03;;
44197;SDS011;30157;55.512;37.764;2023-09-30T09:05:12;14.63;;;6.50;;
44197;SDS011;30157;55.512;37.764;2023-09-30T09:07:38;13.55;;;6.53;;
44197;SDS011;30157;55.512;37.764;2023-09-30T09:10:07;9.57;;;5.82;;
44197;SDS011;30157;55.512;37.764;2023-09-30T09:12:40;14.75;;;7.10;;
44197;SDS011;30157;55.512;37.764;2023-09-30T09:15:07;11.88;;;6.15;;
44197;SDS011;30157;55.512;37.764;2023-09-30T09:17:45;17.10;;;7.43;;
44197;SDS011;30157;55.512;37.764;2023-09-30T09:20:16;8.32;;;5.95;;
44197;SDS011;30157;55.512;37.764;2023-09-30T09:22:47;10.07;;;6.30;;
44197;SDS011;30157;55.512;37.764;2023-09-30T09:25:19;10.05;;;6.38;;
44197;SDS011;30157;55.512;37.764;2023-09-30T09:27:48;8.18;;;5.93;;
44197;SDS011;30157;55.512;37.764;2023-09-30T09:32:54;15.15;;;6.43;;
44197;SDS011;30157;55.512;37.764;2023-09-30T09:35:27;9.88;;;6.45;;
44197;SDS011;30157;55.512;37.764;2023-09-30T09:37:59;10.65;;;6.85;;
44197;SDS011;30157;55.512;37.764;2023-09-30T09:40:27;9.40;;;6.57;;
44197;SDS011;30157;55.512;37.764;2023-09-30T09:42:54;9.52;;;6.43;;
44197;SDS011;30157;55.512;37.764;2023-09-30T09:45:22;10.07;;;6.22;;
44197;SDS011;30157;55.512;37.764;2023-09-30T09:47:50;13.27;;;6.93;;
44197;SDS011;30157;55.512;37.764;2023-09-30T09:50:18;11.05;;;6.82;;
44197;SDS011;30157;55.512;37.764;2023-09-30T09:52:49;11.57;;;6.65;;
44197;SDS011;30157;55.512;37.764;2023-09-30T09:55:19;17.38;;;7.18;;
44197;SDS011;30157;55.512;37.764;2023-09-30T09:57:47;13.45;;;7.15;;
44197;SDS011;30157;55.512;37.764;2023-09-30T10:00:15;9.70;;;7.28;;
44197;SDS011;30157;55.512;37.764;2023-09-30T10:02:44;12.13;;;7.03;;
44197;SDS011;30157;55.512;37.764;2023-09-30T10:05:12;12.63;;;6.47;;
44197;SDS011;30157;55.512;37.764;2023-09-30T10:07:55;9.07;;;6.95;;
44197;SDS011;30157;55.512;37.764;2023-09-30T10:10:58;10.27;;;6.30;;
44197;SDS011;30157;55.512;37.764;2023-09-30T10:21:38;16.63;;;6.40;;
44197;SDS011;30157;55.512;37.764;2023-09-30T10:29:47;10.65;;;6.38;;
44197;SDS011;30157;55.512;37.764;2023-09-30T10:32:19;8.50;;;6.18;;
44197;SDS011;30157;55.512;37.764;2023-09-30T10:34:48;9.10;;;6.38;;
44197;SDS011;30157;55.512;37.764;2023-09-30T10:37:21;9.60;;;6.78;;
44197;SDS011;30157;55.512;37.764;2023-09-30T10:39:52;8.88;;;6.35;;
44197;SDS011;30157;55.512;37.764;2023-09-30T10:42:45;8.88;;;6.32;;
44197;SDS011;30157;55.512;37.764;2023-09-30T10:45:42;12.77;;;6.82;;
44197;SDS011;30157;55.512;37.764;2023-09-30T10:48:54;9.10;;;5.85;;
44197;SDS011;30157;55.512;37.764;2023-09-30T10:50:58;11.93;;;6.63;;
44197;SDS011;30157;55.512;37.764;2023-09-30T10:53:26;11.23;;;6.72;;
44197;SDS011;30157;55.512;37.764;2023-09-30T10:55:54;10.07;;;6.57;;
44197;SDS011;30157;55.512;37.764;2023-09-30T10:58:21;10.88;;;6.45;;
44197;SDS011;30157;55.512;37.764;2023-09-30T11:01:04;9.35;;;6.35;;
44197;SDS011;30157;55.512;37.764;2023-09-30T11:03:30;8.80;;;6.60;;
44197;SDS011;30157;55.512;37.764;2023-09-30T11:05:56;9.75;;;6.45;;
44197;SDS011;30157;55.512;37.764;2023-09-30T11:08:22;9.75;;;6.53;;
44197;SDS011;30157;55.512;37.764;2023-09-30T11:10:50;9.82;;;6.63;;
44197;SDS011;30157;55.512;37.764;2023-09-30T11:13:17;11.32;;;7.13;;
44197;SDS011;30157;55.512;37.764;2023-09-30T11:15:44;10.75;;;6.80;;
44197;SDS011;30157;55.512;37.764;2023-09-30T11:20:41;10.45;;;6.55;;
44197;SDS011;30157;55.512;37.764;2023-09-30T11:23:08;12.10;;;6.53;;
44197;SDS011;30157;55.512;37.764;2023-09-30T11:25:35;8.32;;;6.00;;
44197;SDS011;30157;55.512;37.764;2023-09-30T11:28:15;9.82;;;6.20;;
44197;SDS011;30157;55.512;37.764;2023-09-30T11:30:58;10.40;;;6.35;;
44197;SDS011;30157;55.512;37.764;2023-09-30T11:33:26;10.57;;;6.50;;
44197;SDS011;30157;55.512;37.764;2023-09-30T11:35:55;9.70;;;6.25;;
44197;SDS011;30157;55.512;37.764;2023-09-30T11:38:29;9.30;;;6.35;;
44197;SDS011;30157;55.512;37.764;2023-09-30T11:41:04;12.20;;;6.63;;
44197;SDS011;30157;55.512;37.764;2023-09-30T11:43:33;8.40;;;7.00;;
44197;SDS011;30157;55.512;37.764;2023-09-30T11:46:03;10.38;;;7.00;;
44197;SDS011;30157;55.512;37.764;2023-09-30T11:48:37;12.98;;;7.55;;
44197;SDS011;30157;55.512;37.764;2023-09-30T11:51:04;11.20;;;7.18;;
44197;SDS011;30157;55.512;37.764;2023-09-30T11:53:30;9.43;;;7.15;;
44197;SDS011;30157;55.512;37.764;2023-09-30T11:56:00;11.70;;;7.05;;
44197;SDS011;30157;55.512;37.764;2023-09-30T11:58:32;11.88;;;7.18;;
44197;SDS011;30157;55.512;37.764;2023-09-30T12:00:59;11.48;;;7.40;;
44197;SDS011;30157;55.512;37.764;2023-09-30T12:03:25;8.57;;;7.32;;
44197;SDS011;30157;55.512;37.764;2023-09-30T12:05:57;11.07;;;7.30;;
44197;SDS011;30157;55.512;37.764;2023-09-30T12:08:24;12.77;;;7.53;;
44197;SDS011;30157;55.512;37.764;2023-09-30T12:10:50;11.40;;;7.10;;
44197;SDS011;30157;55.512;37.764;2023-09-30T12:13:15;12.23;;;7.05;;
44197;SDS011;30157;55.512;37.764;2023-09-30T12:15:41;9.38;;;7.07;;
44197;SDS011;30157;55.512;37.764;2023-09-30T12:18:09;13.57;;;7.20;;
44197;SDS011;30157;55.512;37.764;2023-09-30T12:20:36;8.68;;;6.70;;
44197;SDS011;30157;55.512;37.764;2023-09-30T12:23:02;10.85;;;7.90;;
44197;SDS011;30157;55.512;37.764;2023-09-30T12:25:30;14.38;;;7.20;;
44197;SDS011;30157;55.512;37.764;2023-09-30T12:27:57;9.85;;;7.03;;
44197;SDS011;30157;55.512;37.764;2023-09-30T12:30:23;15.23;;;8.00;;
44197;SDS011;30157;55.512;37.764;2023-09-30T12:32:49;13.93;;;7.78;;
44197;SDS011;30157;55.512;37.764;2023-09-30T12:35:15;10.65;;;7.15;;
44197;SDS011;30157;55.512;37.764;2023-09-30T12:37:41;10.15;;;6.90;;
44197;SDS011;30157;55.512;37.764;2023-09-30T12:40:09;10.15;;;7.20;;
44197;SDS011;30157;55.512;37.764;2023-09-30T12:42:37;9.48;;;7.28;;
44197;SDS011;30157;55.512;37.764;2023-09-30T12:45:03;15.05;;;8.35;;
44197;SDS011;30157;55.512;37.764;2023-09-30T12:47:31;11.40;;;7.57;;
44197;SDS011;30157;55.512;37.764;2023-09-30T12:49:57;11.48;;;7.90;;
44197;SDS011;30157;55.512;37.764;2023-09-30T12:52:23;12.10;;;7.82;;
44197;SDS011;30157;55.512;37.764;2023-09-30T12:54:51;10.93;;;8.15;;
44197;SDS011;30157;55.512;37.764;2023-09-30T12:57:17;11.27;;;7.25;;
44197;SDS011;30157;55.512;37.764;2023-09-30T12:59:44;13.57;;;9.50;;
44197;SDS011;30157;55.512;37.764;2023-09-30T13:02:15;11.77;;;9.32;;
44197;SDS011;30157;55.512;37.764;2023-09-30T13:04:41;12.68;;;9.73;;
44197;SDS011;30157;55.512;37.764;2023-09-30T13:07:09;12.65;;;9.50;;
44197;SDS011;30157;55.512;37.764;2023-09-30T13:09:41;11.63;;;8.90;;
44197;SDS011;30157;55.512;37.764;2023-09-30T13:12:08;12.30;;;8.70;;
44197;SDS011;30157;55.512;37.764;2023-09-30T13:14:34;10.57;;;7.60;;
44197;SDS011;30157;55.512;37.764;2023-09-30T13:17:01;13.07;;;8.43;;
44197;SDS011;30157;55.512;37.764;2023-09-30T13:19:26;10.23;;;7.82;;
44197;SDS011;30157;55.512;37.764;2023-09-30T13:21:53;9.77;;;7.55;;
44197;SDS011;30157;55.512;37.764;2023-09-30T13:24:19;16.60;;;7.57;;
44197;SDS011;30157;55.512;37.764;2023-09-30T13:26:45;10.93;;;8.38;;
44197;SDS011;30157;55.512;37.764;2023-09-30T13:29:12;10.02;;;7.13;;
44197;SDS011;30157;55.512;37.764;2023-09-30T13:31:41;11.43;;;7.40;;
44197;SDS011;30157;55.512;37.764;2023-09-30T13:34:09;11.07;;;7.40;;
44197;SDS011;30157;55.512;37.764;2023-09-30T13:36:39;12.20;;;7.90;;
44197;SDS011;30157;55.512;37.764;2023-09-30T13:39:06;13.25;;;8.10;;
44197;SDS011;30157;55.512;37.764;2023-09-30T13:41:35;18.05;;;8.65;;
44197;SDS011;30157;55.512;37.764;2023-09-30T13:44:01;10.52;;;8.27;;
44197;SDS011;30157;55.512;37.764;2023-09-30T13:46:27;11.77;;;8.10;;
44197;SDS011;30157;55.512;37.764;2023-09-30T13:48:54;13.38;;;9.00;;
44197;SDS011;30157;55.512;37.764;2023-09-30T13:51:20;12.85;;;8.70;;
44197;SDS011;30157;55.512;37.764;2023-09-30T13:53:46;13.13;;;8.45;;
44197;SDS011;30157;55.512;37.764;2023-09-30T13:56:12;15.43;;;8.95;;
44197;SDS011;30157;55.512;37.764;2023-09-30T13:58:38;10.52;;;8.77;;
44197;SDS011;30157;55.512;37.764;2023-09-30T14:01:04;16.52;;;8.75;;
44197;SDS011;30157;55.512;37.764;2023-09-30T14:03:32;14.32;;;8.80;;
44197;SDS011;30157;55.512;37.764;2023-09-30T14:05:59;14.73;;;9.35;;
44197;SDS011;30157;55.512;37.764;2023-09-30T14:08:25;15.43;;;8.90;;
44197;SDS011;30157;55.512;37.764;2023-09-30T14:10:51;12.98;;;8.48;;
44197;SDS011;30157;55.512;37.764;2023-09-30T14:13:17;12.75;;;8.32;;
44197;SDS011;30157;55.512;37.764;2023-09-30T14:15:44;14.70;;;9.70;;
44197;SDS011;30157;55.512;37.764;2023-09-30T14:18:12;16.73;;;10.25;;
44197;SDS011;30157;55.512;37.764;2023-09-30T14:20:38;17.05;;;10.30;;
44197;SDS011;30157;55.512;37.764;2023-09-30T14:23:05;14.45;;;10.02;;
44197;SDS011;30157;55.512;37.764;2023-09-30T14:25:32;15.65;;;10.07;;
44197;SDS011;30157;55.512;37.764;2023-09-30T14:27:57;16.02;;;10.50;;
44197;SDS011;30157;55.512;37.764;2023-09-30T14:30:25;15.57;;;9.63;;
44197;SDS011;30157;55.512;37.764;2023-09-30T14:32:52;18.02;;;9.77;;
44197;SDS011;30157;55.512;37.764;2023-09-30T14:35:19;13.60;;;8.85;;
44197;SDS011;30157;55.512;37.764;2023-09-30T14:37:46;13.85;;;9.27;;
44197;SDS011;30157;55.512;37.764;2023-09-30T14:40:11;15.00;;;9.80;;